sensor_id;sensor_type;location;lat;lon;timestamp;P1;durP1;ratioP1;P2;durP2;ratioP2
3601;SDS011;1815;50.950;6.920;2023-05-07T00:00:27;2.73;;;1.73;;
3601;SDS011;1815;50.950;6.920;2023-05-07T00:02:53;2.70;;;1.90;;
3601;SDS011;1815;50.950;6.920;2023-05-07T00:05:19;3.30;;;1.87;;
3601;SDS011;1815;50.950;6.920;2023-05-07T00:07:44;2.80;;;1.50;;
3601;SDS011;1815;50.950;6.920;2023-05-07T00:10:11;2.80;;;1.93;;
3601;SDS011;1815;50.950;6.920;2023-05-07T00:12:37;5.77;;;1.80;;
3601;SDS011;1815;50.950;6.920;2023-05-07T00:15:03;3.43;;;1.60;;
3601;SDS011;1815;50.950;6.920;2023-05-07T00:17:30;2.83;;;1.83;;
3601;SDS011;1815;50.950;6.920;2023-05-07T00:19:59;2.53;;;1.63;;
3601;SDS011;1815;50.950;6.920;2023-05-07T00:22:24;2.50;;;1.50;;
3601;SDS011;1815;50.950;6.920;2023-05-07T00:24:50;2.83;;;1.47;;
3601;SDS011;1815;50.950;6.920;2023-05-07T00:27:16;2.40;;;1.93;;
3601;SDS011;1815;50.950;6.920;2023-05-07T00:29:41;2.93;;;1.47;;
3601;SDS011;1815;50.950;6.920;2023-05-07T00:32:07;2.27;;;1.30;;
3601;SDS011;1815;50.950;6.920;2023-05-07T00:34:33;3.60;;;1.50;;
3601;SDS011;1815;50.950;6.920;2023-05-07T00:36:59;1.87;;;1.40;;
3601;SDS011;1815;50.950;6.920;2023-05-07T00:39:26;3.03;;;1.47;;
3601;SDS011;1815;50.950;6.920;2023-05-07T00:41:51;3.17;;;1.37;;
3601;SDS011;1815;50.950;6.920;2023-05-07T00:44:17;1.90;;;1.37;;
3601;SDS011;1815;50.950;6.920;2023-05-07T00:46:43;2.37;;;1.50;;
3601;SDS011;1815;50.950;6.920;2023-05-07T00:49:10;2.70;;;1.60;;
3601;SDS011;1815;50.950;6.920;2023-05-07T00:51:36;2.00;;;1.33;;
3601;SDS011;1815;50.950;6.920;2023-05-07T00:54:02;2.33;;;1.20;;
3601;SDS011;1815;50.950;6.920;2023-05-07T00:56:28;2.97;;;1.40;;
3601;SDS011;1815;50.950;6.920;2023-05-07T00:58:54;2.07;;;1.50;;
3601;SDS011;1815;50.950;6.920;2023-05-07T01:01:20;4.90;;;1.60;;
3601;SDS011;1815;50.950;6.920;2023-05-07T01:03:46;2.10;;;1.37;;
3601;SDS011;1815;50.950;6.920;2023-05-07T01:06:27;2.40;;;1.63;;
3601;SDS011;1815;50.950;6.920;2023-05-07T01:08:54;2.53;;;1.50;;
3601;SDS011;1815;50.950;6.920;2023-05-07T01:11:22;4.43;;;1.50;;
3601;SDS011;1815;50.950;6.920;2023-05-07T01:13:48;3.07;;;1.90;;
3601;SDS011;1815;50.950;6.920;2023-05-07T01:16:15;1.93;;;1.10;;
3601;SDS011;1815;50.950;6.920;2023-05-07T01:18:41;2.43;;;1.50;;
3601;SDS011;1815;50.950;6.920;2023-05-07T01:21:07;2.10;;;1.60;;
3601;SDS011;1815;50.950;6.920;2023-05-07T01:23:36;2.50;;;1.63;;
3601;SDS011;1815;50.950;6.920;2023-05-07T01:26:03;1.90;;;1.40;;
3601;SDS011;1815;50.950;6.920;2023-05-07T01:28:31;3.20;;;1.50;;
3601;SDS011;1815;50.950;6.920;2023-05-07T01:31:00;3.60;;;1.20;;
3601;SDS011;1815;50.950;6.920;2023-05-07T01:33:29;1.60;;;1.10;;
3601;SDS011;1815;50.950;6.920;2023-05-07T01:35:57;2.83;;;1.37;;
3601;SDS011;1815;50.950;6.920;2023-05-07T01:38:26;2.00;;;1.70;;
3601;SDS011;1815;50.950;6.920;2023-05-07T01:40:53;1.87;;;1.13;;
3601;SDS011;1815;50.950;6.920;2023-05-07T01:43:20;2.30;;;1.60;;
3601;SDS011;1815;50.950;6.920;2023-05-07T01:45:45;2.30;;;1.50;;
3601;SDS011;1815;50.950;6.920;2023-05-07T01:48:12;3.80;;;1.47;;
3601;SDS011;1815;50.950;6.920;2023-05-07T01:50:39;1.80;;;1.30;;
3601;SDS011;1815;50.950;6.920;2023-05-07T01:53:05;2.97;;;1.83;;
3601;SDS011;1815;50.950;6.920;2023-05-07T01:55:31;3.87;;;1.63;;
3601;SDS011;1815;50.950;6.920;2023-05-07T01:57:57;1.90;;;1.30;;
3601;SDS011;1815;50.950;6.920;2023-05-07T02:00:23;3.83;;;1.10;;
3601;SDS011;1815;50.950;6.920;2023-05-07T02:02:49;2.10;;;1.20;;
3601;SDS011;1815;50.950;6.920;2023-05-07T02:05:24;2.10;;;1.47;;
3601;SDS011;1815;50.950;6.920;2023-05-07T02:08:04;3.80;;;2.10;;
3601;SDS011;1815;50.950;6.920;2023-05-07T02:10:30;3.30;;;1.90;;
3601;SDS011;1815;50.950;6.920;2023-05-07T02:12:57;3.10;;;1.47;;
3601;SDS011;1815;50.950;6.920;2023-05-07T02:15:23;1.90;;;1.30;;
3601;SDS011;1815;50.950;6.920;2023-05-07T02:18:10;3.53;;;1.50;;
3601;SDS011;1815;50.950;6.920;2023-05-07T02:20:35;1.77;;;1.17;;
3601;SDS011;1815;50.950;6.920;2023-05-07T02:23:01;2.83;;;1.30;;
3601;SDS011;1815;50.950;6.920;2023-05-07T02:25:28;4.07;;;1.63;;
3601;SDS011;1815;50.950;6.920;2023-05-07T02:27:55;2.37;;;1.10;;
3601;SDS011;1815;50.950;6.920;2023-05-07T02:30:25;4.13;;;1.70;;
3601;SDS011;1815;50.950;6.920;2023-05-07T02:32:53;3.20;;;1.40;;
3601;SDS011;1815;50.950;6.920;2023-05-07T02:35:20;3.10;;;1.70;;
3601;SDS011;1815;50.950;6.920;2023-05-07T02:37:45;1.80;;;1.20;;
3601;SDS011;1815;50.950;6.920;2023-05-07T02:40:12;2.50;;;1.50;;
3601;SDS011;1815;50.950;6.920;2023-05-07T02:42:38;4.33;;;1.80;;
3601;SDS011;1815;50.950;6.920;2023-05-07T02:45:04;3.23;;;1.30;;
3601;SDS011;1815;50.950;6.920;2023-05-07T02:47:30;2.23;;;1.60;;
3601;SDS011;1815;50.950;6.920;2023-05-07T02:49:57;2.67;;;1.60;;
3601;SDS011;1815;50.950;6.920;2023-05-07T02:52:23;1.90;;;1.27;;
3601;SDS011;1815;50.950;6.920;2023-05-07T02:54:49;2.70;;;1.93;;
3601;SDS011;1815;50.950;6.920;2023-05-07T02:57:14;3.07;;;1.87;;
3601;SDS011;1815;50.950;6.920;2023-05-07T02:59:41;2.40;;;1.70;;
3601;SDS011;1815;50.950;6.920;2023-05-07T03:02:07;2.03;;;1.43;;
3601;SDS011;1815;50.950;6.920;2023-05-07T03:04:33;2.27;;;1.63;;
3601;SDS011;1815;50.950;6.920;2023-05-07T03:06:58;2.30;;;1.90;;
3601;SDS011;1815;50.950;6.920;2023-05-07T03:09:24;3.10;;;1.60;;
3601;SDS011;1815;50.950;6.920;2023-05-07T03:11:50;4.00;;;1.63;;
3601;SDS011;1815;50.950;6.920;2023-05-07T03:14:16;4.20;;;1.73;;
3601;SDS011;1815;50.950;6.920;2023-05-07T03:16:42;2.37;;;1.33;;
3601;SDS011;1815;50.950;6.920;2023-05-07T03:19:07;2.20;;;1.30;;
3601;SDS011;1815;50.950;6.920;2023-05-07T03:21:33;2.77;;;2.00;;
3601;SDS011;1815;50.950;6.920;2023-05-07T03:23:59;1.70;;;1.17;;
3601;SDS011;1815;50.950;6.920;2023-05-07T03:26:26;3.63;;;1.33;;
3601;SDS011;1815;50.950;6.920;2023-05-07T03:28:51;3.00;;;1.37;;
3601;SDS011;1815;50.950;6.920;2023-05-07T03:31:17;3.40;;;1.90;;
3601;SDS011;1815;50.950;6.920;2023-05-07T03:33:53;2.93;;;1.53;;
3601;SDS011;1815;50.950;6.920;2023-05-07T03:36:20;3.50;;;1.47;;
3601;SDS011;1815;50.950;6.920;2023-05-07T03:38:47;2.00;;;1.30;;
3601;SDS011;1815;50.950;6.920;2023-05-07T03:41:17;2.83;;;1.07;;
3601;SDS011;1815;50.950;6.920;2023-05-07T03:43:44;2.13;;;1.30;;
3601;SDS011;1815;50.950;6.920;2023-05-07T03:46:11;2.23;;;1.50;;
3601;SDS011;1815;50.950;6.920;2023-05-07T03:48:37;1.87;;;1.30;;
3601;SDS011;1815;50.950;6.920;2023-05-07T03:51:04;3.03;;;1.50;;
3601;SDS011;1815;50.950;6.920;2023-05-07T03:53:32;2.83;;;1.40;;
3601;SDS011;1815;50.950;6.920;2023-05-07T03:55:58;3.10;;;1.20;;
3601;SDS011;1815;50.950;6.920;2023-05-07T03:58:24;2.50;;;1.60;;
3601;SDS011;1815;50.950;6.920;2023-05-07T04:00:52;2.50;;;1.90;;
3601;SDS011;1815;50.950;6.920;2023-05-07T04:03:23;1.80;;;1.30;;
3601;SDS011;1815;50.950;6.920;2023-05-07T04:05:49;2.33;;;1.30;;
3601;SDS011;1815;50.950;6.920;2023-05-07T04:08:14;3.77;;;1.30;;
3601;SDS011;1815;50.950;6.920;2023-05-07T04:10:45;2.93;;;1.30;;
3601;SDS011;1815;50.950;6.920;2023-05-07T04:13:11;1.80;;;1.27;;
3601;SDS011;1815;50.950;6.920;2023-05-07T04:15:37;3.00;;;1.37;;
3601;SDS011;1815;50.950;6.920;2023-05-07T04:18:07;2.30;;;1.30;;
3601;SDS011;1815;50.950;6.920;2023-05-07T04:20:34;4.27;;;1.80;;
3601;SDS011;1815;50.950;6.920;2023-05-07T04:23:02;1.63;;;1.20;;
3601;SDS011;1815;50.950;6.920;2023-05-07T04:25:29;2.13;;;1.10;;
3601;SDS011;1815;50.950;6.920;2023-05-07T04:28:01;2.53;;;1.30;;
3601;SDS011;1815;50.950;6.920;2023-05-07T04:30:29;3.97;;;1.50;;
3601;SDS011;1815;50.950;6.920;2023-05-07T04:32:55;3.63;;;1.53;;
3601;SDS011;1815;50.950;6.920;2023-05-07T04:35:22;1.70;;;1.20;;
3601;SDS011;1815;50.950;6.920;2023-05-07T04:37:48;3.10;;;1.27;;
3601;SDS011;1815;50.950;6.920;2023-05-07T04:40:14;1.70;;;1.07;;
3601;SDS011;1815;50.950;6.920;2023-05-07T04:42:41;2.47;;;1.30;;
3601;SDS011;1815;50.950;6.920;2023-05-07T04:45:08;2.17;;;1.07;;
3601;SDS011;1815;50.950;6.920;2023-05-07T04:47:36;1.80;;;1.30;;
3601;SDS011;1815;50.950;6.920;2023-05-07T04:50:02;2.00;;;1.20;;
3601;SDS011;1815;50.950;6.920;2023-05-07T04:52:28;1.83;;;1.07;;
3601;SDS011;1815;50.950;6.920;2023-05-07T04:54:54;2.33;;;1.00;;
3601;SDS011;1815;50.950;6.920;2023-05-07T04:57:19;2.07;;;1.27;;
3601;SDS011;1815;50.950;6.920;2023-05-07T04:59:45;1.80;;;1.10;;
3601;SDS011;1815;50.950;6.920;2023-05-07T05:02:11;2.00;;;1.50;;
3601;SDS011;1815;50.950;6.920;2023-05-07T05:04:37;2.87;;;1.10;;
3601;SDS011;1815;50.950;6.920;2023-05-07T05:07:03;1.93;;;1.20;;
3601;SDS011;1815;50.950;6.920;2023-05-07T05:09:30;4.03;;;1.00;;
3601;SDS011;1815;50.950;6.920;2023-05-07T05:11:56;2.70;;;1.00;;
3601;SDS011;1815;50.950;6.920;2023-05-07T05:14:21;2.00;;;0.90;;
3601;SDS011;1815;50.950;6.920;2023-05-07T05:16:47;1.70;;;0.97;;
3601;SDS011;1815;50.950;6.920;2023-05-07T05:19:13;1.73;;;1.10;;
3601;SDS011;1815;50.950;6.920;2023-05-07T05:21:40;2.00;;;0.97;;
3601;SDS011;1815;50.950;6.920;2023-05-07T05:24:08;3.57;;;1.07;;
3601;SDS011;1815;50.950;6.920;2023-05-07T05:26:34;4.40;;;1.20;;
3601;SDS011;1815;50.950;6.920;2023-05-07T05:29:00;1.70;;;0.90;;
3601;SDS011;1815;50.950;6.920;2023-05-07T05:31:28;3.10;;;1.10;;
3601;SDS011;1815;50.950;6.920;2023-05-07T05:33:54;2.10;;;1.00;;
3601;SDS011;1815;50.950;6.920;2023-05-07T05:36:20;2.73;;;1.00;;
3601;SDS011;1815;50.950;6.920;2023-05-07T05:38:50;2.47;;;1.00;;
3601;SDS011;1815;50.950;6.920;2023-05-07T05:41:16;2.40;;;0.90;;
3601;SDS011;1815;50.950;6.920;2023-05-07T05:43:42;2.80;;;1.20;;
3601;SDS011;1815;50.950;6.920;2023-05-07T05:46:09;2.03;;;1.57;;
3601;SDS011;1815;50.950;6.920;2023-05-07T05:48:37;2.23;;;0.97;;
3601;SDS011;1815;50.950;6.920;2023-05-07T05:51:04;1.90;;;1.07;;
3601;SDS011;1815;50.950;6.920;2023-05-07T05:53:29;2.00;;;0.80;;
3601;SDS011;1815;50.950;6.920;2023-05-07T05:55:55;2.03;;;0.80;;
3601;SDS011;1815;50.950;6.920;2023-05-07T05:58:21;1.70;;;1.00;;
3601;SDS011;1815;50.950;6.920;2023-05-07T06:00:53;3.57;;;0.87;;
3601;SDS011;1815;50.950;6.920;2023-05-07T06:03:22;2.73;;;0.93;;
3601;SDS011;1815;50.950;6.920;2023-05-07T06:05:48;1.80;;;0.90;;
3601;SDS011;1815;50.950;6.920;2023-05-07T06:08:14;1.83;;;1.10;;
3601;SDS011;1815;50.950;6.920;2023-05-07T06:10:39;1.47;;;0.80;;
3601;SDS011;1815;50.950;6.920;2023-05-07T06:13:07;2.23;;;0.90;;
3601;SDS011;1815;50.950;6.920;2023-05-07T06:15:34;2.40;;;1.00;;
3601;SDS011;1815;50.950;6.920;2023-05-07T06:18:05;2.73;;;0.90;;
3601;SDS011;1815;50.950;6.920;2023-05-07T06:20:31;1.50;;;0.90;;
3601;SDS011;1815;50.950;6.920;2023-05-07T06:22:58;1.73;;;0.80;;
3601;SDS011;1815;50.950;6.920;2023-05-07T06:25:24;1.93;;;1.00;;
3601;SDS011;1815;50.950;6.920;2023-05-07T06:27:50;1.80;;;0.93;;
3601;SDS011;1815;50.950;6.920;2023-05-07T06:30:16;1.87;;;1.00;;
3601;SDS011;1815;50.950;6.920;2023-05-07T06:32:42;1.70;;;0.83;;
3601;SDS011;1815;50.950;6.920;2023-05-07T06:35:09;2.33;;;1.10;;
3601;SDS011;1815;50.950;6.920;2023-05-07T06:37:36;1.97;;;1.00;;
3601;SDS011;1815;50.950;6.920;2023-05-07T06:40:11;2.00;;;0.90;;
3601;SDS011;1815;50.950;6.920;2023-05-07T06:42:38;1.70;;;1.10;;
3601;SDS011;1815;50.950;6.920;2023-05-07T06:45:23;1.70;;;0.90;;
3601;SDS011;1815;50.950;6.920;2023-05-07T06:47:52;2.70;;;1.00;;
3601;SDS011;1815;50.950;6.920;2023-05-07T06:50:18;1.40;;;0.83;;
3601;SDS011;1815;50.950;6.920;2023-05-07T06:55:25;2.00;;;0.90;;
3601;SDS011;1815;50.950;6.920;2023-05-07T06:57:52;2.53;;;0.90;;
3601;SDS011;1815;50.950;6.920;2023-05-07T07:00:20;1.97;;;1.07;;
3601;SDS011;1815;50.950;6.920;2023-05-07T07:02:50;2.40;;;0.90;;
3601;SDS011;1815;50.950;6.920;2023-05-07T07:05:20;1.97;;;0.83;;
3601;SDS011;1815;50.950;6.920;2023-05-07T07:07:45;2.13;;;0.90;;
3601;SDS011;1815;50.950;6.920;2023-05-07T07:10:21;1.50;;;0.83;;
3601;SDS011;1815;50.950;6.920;2023-05-07T07:12:48;1.90;;;1.03;;
3601;SDS011;1815;50.950;6.920;2023-05-07T07:15:15;1.60;;;0.80;;
3601;SDS011;1815;50.950;6.920;2023-05-07T07:17:42;2.43;;;0.70;;
3601;SDS011;1815;50.950;6.920;2023-05-07T07:20:08;3.00;;;0.80;;
3601;SDS011;1815;50.950;6.920;2023-05-07T07:22:34;1.50;;;0.73;;
3601;SDS011;1815;50.950;6.920;2023-05-07T07:25:00;2.80;;;0.90;;
3601;SDS011;1815;50.950;6.920;2023-05-07T07:27:26;1.67;;;0.93;;
3601;SDS011;1815;50.950;6.920;2023-05-07T07:29:51;2.83;;;0.77;;
3601;SDS011;1815;50.950;6.920;2023-05-07T07:32:17;1.47;;;0.70;;
3601;SDS011;1815;50.950;6.920;2023-05-07T07:34:44;2.73;;;0.77;;
3601;SDS011;1815;50.950;6.920;2023-05-07T07:37:10;2.40;;;0.80;;
3601;SDS011;1815;50.950;6.920;2023-05-07T07:39:37;1.80;;;0.93;;
3601;SDS011;1815;50.950;6.920;2023-05-07T07:42:07;1.70;;;0.90;;
3601;SDS011;1815;50.950;6.920;2023-05-07T07:44:33;2.10;;;0.80;;
3601;SDS011;1815;50.950;6.920;2023-05-07T07:47:04;2.70;;;0.80;;
3601;SDS011;1815;50.950;6.920;2023-05-07T07:49:30;1.80;;;1.00;;
3601;SDS011;1815;50.950;6.920;2023-05-07T07:52:01;1.30;;;0.70;;
3601;SDS011;1815;50.950;6.920;2023-05-07T07:54:28;1.60;;;0.80;;
3601;SDS011;1815;50.950;6.920;2023-05-07T07:56:55;1.50;;;0.80;;
3601;SDS011;1815;50.950;6.920;2023-05-07T07:59:21;2.73;;;0.80;;
3601;SDS011;1815;50.950;6.920;2023-05-07T08:01:48;2.07;;;0.90;;
3601;SDS011;1815;50.950;6.920;2023-05-07T08:04:16;1.60;;;1.00;;
3601;SDS011;1815;50.950;6.920;2023-05-07T08:06:42;4.30;;;1.10;;
3601;SDS011;1815;50.950;6.920;2023-05-07T08:09:09;1.70;;;1.00;;
3601;SDS011;1815;50.950;6.920;2023-05-07T08:11:36;2.67;;;0.80;;
3601;SDS011;1815;50.950;6.920;2023-05-07T08:14:02;1.67;;;0.80;;
3601;SDS011;1815;50.950;6.920;2023-05-07T08:16:29;1.77;;;0.80;;
3601;SDS011;1815;50.950;6.920;2023-05-07T08:18:54;3.20;;;0.90;;
3601;SDS011;1815;50.950;6.920;2023-05-07T08:21:20;2.53;;;1.03;;
3601;SDS011;1815;50.950;6.920;2023-05-07T08:23:46;1.40;;;0.80;;
3601;SDS011;1815;50.950;6.920;2023-05-07T08:26:12;2.67;;;0.90;;
3601;SDS011;1815;50.950;6.920;2023-05-07T08:28:38;2.93;;;0.97;;
3601;SDS011;1815;50.950;6.920;2023-05-07T08:31:04;2.43;;;0.80;;
3601;SDS011;1815;50.950;6.920;2023-05-07T08:33:34;2.37;;;0.80;;
3601;SDS011;1815;50.950;6.920;2023-05-07T08:36:00;2.40;;;1.10;;
3601;SDS011;1815;50.950;6.920;2023-05-07T08:38:26;2.10;;;1.23;;
3601;SDS011;1815;50.950;6.920;2023-05-07T08:40:52;1.50;;;0.80;;
3601;SDS011;1815;50.950;6.920;2023-05-07T08:43:19;1.80;;;0.90;;
3601;SDS011;1815;50.950;6.920;2023-05-07T08:45:46;3.10;;;0.90;;
3601;SDS011;1815;50.950;6.920;2023-05-07T08:48:18;2.30;;;0.90;;
3601;SDS011;1815;50.950;6.920;2023-05-07T08:50:53;2.43;;;1.20;;
3601;SDS011;1815;50.950;6.920;2023-05-07T08:53:20;1.70;;;0.80;;
3601;SDS011;1815;50.950;6.920;2023-05-07T08:55:46;2.93;;;1.00;;
3601;SDS011;1815;50.950;6.920;2023-05-07T08:58:13;6.10;;;0.90;;
3601;SDS011;1815;50.950;6.920;2023-05-07T09:00:39;1.83;;;0.80;;
3601;SDS011;1815;50.950;6.920;2023-05-07T09:03:06;2.23;;;0.70;;
3601;SDS011;1815;50.950;6.920;2023-05-07T09:05:34;1.70;;;0.80;;
3601;SDS011;1815;50.950;6.920;2023-05-07T09:08:04;2.23;;;0.80;;
3601;SDS011;1815;50.950;6.920;2023-05-07T09:10:35;3.03;;;0.80;;
3601;SDS011;1815;50.950;6.920;2023-05-07T09:13:02;2.67;;;1.10;;
3601;SDS011;1815;50.950;6.920;2023-05-07T09:15:29;2.20;;;1.10;;
3601;SDS011;1815;50.950;6.920;2023-05-07T09:17:58;2.00;;;0.80;;
3601;SDS011;1815;50.950;6.920;2023-05-07T09:20:28;1.90;;;0.80;;
3601;SDS011;1815;50.950;6.920;2023-05-07T09:22:55;1.90;;;0.90;;
3601;SDS011;1815;50.950;6.920;2023-05-07T09:25:30;2.20;;;0.90;;
3601;SDS011;1815;50.950;6.920;2023-05-07T09:28:00;1.80;;;0.80;;
3601;SDS011;1815;50.950;6.920;2023-05-07T09:30:27;2.87;;;0.70;;
3601;SDS011;1815;50.950;6.920;2023-05-07T09:32:56;2.13;;;0.70;;
3601;SDS011;1815;50.950;6.920;2023-05-07T09:35:26;1.47;;;0.70;;
3601;SDS011;1815;50.950;6.920;2023-05-07T09:37:57;4.07;;;0.70;;
3601;SDS011;1815;50.950;6.920;2023-05-07T09:40:28;2.23;;;0.80;;
3601;SDS011;1815;50.950;6.920;2023-05-07T09:43:08;1.50;;;0.70;;
3601;SDS011;1815;50.950;6.920;2023-05-07T09:45:36;1.30;;;0.60;;
3601;SDS011;1815;50.950;6.920;2023-05-07T09:48:02;1.50;;;0.70;;
3601;SDS011;1815;50.950;6.920;2023-05-07T09:50:35;1.50;;;0.70;;
3601;SDS011;1815;50.950;6.920;2023-05-07T09:53:05;2.23;;;0.70;;
3601;SDS011;1815;50.950;6.920;2023-05-07T09:55:32;1.97;;;1.00;;
3601;SDS011;1815;50.950;6.920;2023-05-07T09:57:58;1.50;;;0.60;;
3601;SDS011;1815;50.950;6.920;2023-05-07T10:00:26;2.40;;;0.83;;
3601;SDS011;1815;50.950;6.920;2023-05-07T10:03:01;1.40;;;0.70;;
3601;SDS011;1815;50.950;6.920;2023-05-07T10:05:36;1.40;;;0.60;;
3601;SDS011;1815;50.950;6.920;2023-05-07T10:08:03;2.23;;;0.90;;
3601;SDS011;1815;50.950;6.920;2023-05-07T10:10:29;1.70;;;0.80;;
3601;SDS011;1815;50.950;6.920;2023-05-07T10:12:56;1.97;;;0.80;;
3601;SDS011;1815;50.950;6.920;2023-05-07T10:15:29;1.40;;;0.60;;
3601;SDS011;1815;50.950;6.920;2023-05-07T10:17:56;1.50;;;0.60;;
3601;SDS011;1815;50.950;6.920;2023-05-07T10:20:23;3.13;;;0.70;;
3601;SDS011;1815;50.950;6.920;2023-05-07T10:22:53;1.80;;;0.70;;
3601;SDS011;1815;50.950;6.920;2023-05-07T10:25:28;2.40;;;0.60;;
3601;SDS011;1815;50.950;6.920;2023-05-07T10:27:59;4.40;;;0.80;;
3601;SDS011;1815;50.950;6.920;2023-05-07T10:33:33;1.40;;;0.60;;
3601;SDS011;1815;50.950;6.920;2023-05-07T10:36:01;1.70;;;0.63;;
3601;SDS011;1815;50.950;6.920;2023-05-07T10:38:30;1.87;;;0.80;;
3601;SDS011;1815;50.950;6.920;2023-05-07T10:40:58;2.90;;;0.80;;
3601;SDS011;1815;50.950;6.920;2023-05-07T10:43:24;2.40;;;1.00;;
3601;SDS011;1815;50.950;6.920;2023-05-07T10:51:34;1.47;;;0.70;;
3601;SDS011;1815;50.950;6.920;2023-05-07T10:56:42;2.17;;;0.70;;
3601;SDS011;1815;50.950;6.920;2023-05-07T10:59:33;1.90;;;0.80;;
3601;SDS011;1815;50.950;6.920;2023-05-07T11:02:13;2.10;;;0.83;;
3601;SDS011;1815;50.950;6.920;2023-05-07T11:08:09;2.30;;;0.70;;
3601;SDS011;1815;50.950;6.920;2023-05-07T11:10:55;1.83;;;0.60;;
3601;SDS011;1815;50.950;6.920;2023-05-07T11:13:52;1.70;;;0.70;;
3601;SDS011;1815;50.950;6.920;2023-05-07T11:16:44;1.60;;;0.73;;
3601;SDS011;1815;50.950;6.920;2023-05-07T11:25:33;2.47;;;0.70;;
3601;SDS011;1815;50.950;6.920;2023-05-07T11:28:09;1.60;;;0.70;;
3601;SDS011;1815;50.950;6.920;2023-05-07T11:30:41;1.50;;;0.70;;
3601;SDS011;1815;50.950;6.920;2023-05-07T11:33:09;12.60;;;7.47;;
3601;SDS011;1815;50.950;6.920;2023-05-07T11:35:36;8.37;;;4.43;;
3601;SDS011;1815;50.950;6.920;2023-05-07T11:38:05;8.30;;;4.47;;
3601;SDS011;1815;50.950;6.920;2023-05-07T11:40:33;2.90;;;1.63;;
3601;SDS011;1815;50.950;6.920;2023-05-07T11:42:58;2.60;;;0.90;;
3601;SDS011;1815;50.950;6.920;2023-05-07T11:45:35;2.13;;;0.80;;
3601;SDS011;1815;50.950;6.920;2023-05-07T11:48:01;2.60;;;0.77;;
3601;SDS011;1815;50.950;6.920;2023-05-07T11:50:28;1.83;;;0.67;;
3601;SDS011;1815;50.950;6.920;2023-05-07T11:52:53;1.77;;;0.60;;
3601;SDS011;1815;50.950;6.920;2023-05-07T11:55:19;2.50;;;0.70;;
3601;SDS011;1815;50.950;6.920;2023-05-07T11:57:45;2.73;;;0.80;;
3601;SDS011;1815;50.950;6.920;2023-05-07T12:00:11;1.83;;;0.70;;
3601;SDS011;1815;50.950;6.920;2023-05-07T12:02:41;1.80;;;0.80;;
3601;SDS011;1815;50.950;6.920;2023-05-07T12:05:07;1.50;;;0.60;;
3601;SDS011;1815;50.950;6.920;2023-05-07T12:07:33;1.53;;;0.70;;
3601;SDS011;1815;50.950;6.920;2023-05-07T12:09:59;1.60;;;0.80;;
3601;SDS011;1815;50.950;6.920;2023-05-07T12:12:30;1.63;;;0.93;;
3601;SDS011;1815;50.950;6.920;2023-05-07T12:14:55;1.77;;;0.90;;
3601;SDS011;1815;50.950;6.920;2023-05-07T12:17:21;1.40;;;0.70;;
3601;SDS011;1815;50.950;6.920;2023-05-07T12:19:47;1.80;;;0.87;;
3601;SDS011;1815;50.950;6.920;2023-05-07T12:22:13;2.03;;;0.70;;
3601;SDS011;1815;50.950;6.920;2023-05-07T12:24:48;1.80;;;0.80;;
3601;SDS011;1815;50.950;6.920;2023-05-07T12:27:21;2.57;;;0.80;;
3601;SDS011;1815;50.950;6.920;2023-05-07T12:29:48;1.70;;;0.80;;
3601;SDS011;1815;50.950;6.920;2023-05-07T12:32:18;1.40;;;0.67;;
3601;SDS011;1815;50.950;6.920;2023-05-07T12:34:47;1.57;;;0.80;;
3601;SDS011;1815;50.950;6.920;2023-05-07T12:37:15;1.50;;;0.60;;
3601;SDS011;1815;50.950;6.920;2023-05-07T12:39:44;1.83;;;0.80;;
3601;SDS011;1815;50.950;6.920;2023-05-07T12:42:16;3.53;;;1.47;;
3601;SDS011;1815;50.950;6.920;2023-05-07T12:44:50;1.60;;;0.80;;
3601;SDS011;1815;50.950;6.920;2023-05-07T12:47:17;1.83;;;0.87;;
3601;SDS011;1815;50.950;6.920;2023-05-07T12:49:43;2.27;;;1.13;;
3601;SDS011;1815;50.950;6.920;2023-05-07T12:52:11;3.93;;;1.53;;
3601;SDS011;1815;50.950;6.920;2023-05-07T12:54:37;2.43;;;0.90;;
3601;SDS011;1815;50.950;6.920;2023-05-07T12:57:07;2.47;;;0.80;;
3601;SDS011;1815;50.950;6.920;2023-05-07T12:59:37;2.20;;;1.10;;
3601;SDS011;1815;50.950;6.920;2023-05-07T13:02:05;1.60;;;0.90;;
3601;SDS011;1815;50.950;6.920;2023-05-07T13:04:31;2.30;;;1.30;;
3601;SDS011;1815;50.950;6.920;2023-05-07T13:06:57;3.00;;;1.20;;
3601;SDS011;1815;50.950;6.920;2023-05-07T13:09:24;2.30;;;0.80;;
3601;SDS011;1815;50.950;6.920;2023-05-07T13:11:49;3.90;;;1.47;;
3601;SDS011;1815;50.950;6.920;2023-05-07T13:14:15;1.60;;;0.80;;
3601;SDS011;1815;50.950;6.920;2023-05-07T13:16:41;1.70;;;1.00;;
3601;SDS011;1815;50.950;6.920;2023-05-07T13:19:06;1.70;;;1.03;;
3601;SDS011;1815;50.950;6.920;2023-05-07T13:21:32;2.07;;;0.93;;
3601;SDS011;1815;50.950;6.920;2023-05-07T13:23:58;3.60;;;0.90;;
3601;SDS011;1815;50.950;6.920;2023-05-07T13:26:24;2.50;;;0.90;;
3601;SDS011;1815;50.950;6.920;2023-05-07T13:28:52;2.53;;;1.27;;
3601;SDS011;1815;50.950;6.920;2023-05-07T13:31:18;1.70;;;0.90;;
3601;SDS011;1815;50.950;6.920;2023-05-07T13:33:46;1.97;;;1.10;;
3601;SDS011;1815;50.950;6.920;2023-05-07T13:36:11;1.70;;;0.90;;
3601;SDS011;1815;50.950;6.920;2023-05-07T13:38:37;2.20;;;1.00;;
3601;SDS011;1815;50.950;6.920;2023-05-07T13:41:04;1.50;;;0.70;;
3601;SDS011;1815;50.950;6.920;2023-05-07T13:43:29;1.60;;;0.80;;
3601;SDS011;1815;50.950;6.920;2023-05-07T13:45:56;4.13;;;1.00;;
3601;SDS011;1815;50.950;6.920;2023-05-07T13:48:22;2.47;;;0.90;;
3601;SDS011;1815;50.950;6.920;2023-05-07T13:50:48;2.53;;;0.90;;
3601;SDS011;1815;50.950;6.920;2023-05-07T13:53:14;1.90;;;1.00;;
3601;SDS011;1815;50.950;6.920;2023-05-07T13:55:43;2.67;;;0.90;;
3601;SDS011;1815;50.950;6.920;2023-05-07T13:58:09;2.07;;;1.10;;
3601;SDS011;1815;50.950;6.920;2023-05-07T14:00:34;2.00;;;0.90;;
3601;SDS011;1815;50.950;6.920;2023-05-07T14:03:02;2.70;;;1.20;;
3601;SDS011;1815;50.950;6.920;2023-05-07T14:05:30;2.50;;;0.90;;
3601;SDS011;1815;50.950;6.920;2023-05-07T14:07:56;2.10;;;1.17;;
3601;SDS011;1815;50.950;6.920;2023-05-07T14:10:22;2.63;;;0.90;;
3601;SDS011;1815;50.950;6.920;2023-05-07T14:12:49;1.93;;;1.33;;
3601;SDS011;1815;50.950;6.920;2023-05-07T14:15:14;2.80;;;1.53;;
3601;SDS011;1815;50.950;6.920;2023-05-07T14:17:41;4.63;;;2.70;;
3601;SDS011;1815;50.950;6.920;2023-05-07T14:20:07;5.20;;;2.47;;
3601;SDS011;1815;50.950;6.920;2023-05-07T14:22:35;2.77;;;1.87;;
3601;SDS011;1815;50.950;6.920;2023-05-07T14:25:01;1.80;;;1.10;;
3601;SDS011;1815;50.950;6.920;2023-05-07T14:27:27;2.57;;;1.47;;
3601;SDS011;1815;50.950;6.920;2023-05-07T14:29:53;7.03;;;3.20;;
3601;SDS011;1815;50.950;6.920;2023-05-07T14:32:19;4.60;;;3.50;;
3601;SDS011;1815;50.950;6.920;2023-05-07T14:34:47;4.20;;;3.80;;
3601;SDS011;1815;50.950;6.920;2023-05-07T14:37:13;3.87;;;2.83;;
3601;SDS011;1815;50.950;6.920;2023-05-07T14:39:39;7.00;;;6.10;;
3601;SDS011;1815;50.950;6.920;2023-05-07T14:42:04;5.90;;;4.63;;
3601;SDS011;1815;50.950;6.920;2023-05-07T14:44:33;3.70;;;2.40;;
3601;SDS011;1815;50.950;6.920;2023-05-07T14:47:01;2.20;;;1.43;;
3601;SDS011;1815;50.950;6.920;2023-05-07T14:49:27;2.13;;;1.10;;
3601;SDS011;1815;50.950;6.920;2023-05-07T14:51:53;2.37;;;1.10;;
3601;SDS011;1815;50.950;6.920;2023-05-07T14:54:19;2.30;;;1.10;;
3601;SDS011;1815;50.950;6.920;2023-05-07T14:56:45;3.20;;;1.00;;
3601;SDS011;1815;50.950;6.920;2023-05-07T14:59:11;2.20;;;1.00;;
3601;SDS011;1815;50.950;6.920;2023-05-07T15:01:37;3.20;;;1.20;;
3601;SDS011;1815;50.950;6.920;2023-05-07T15:04:03;2.80;;;1.30;;
3601;SDS011;1815;50.950;6.920;2023-05-07T15:06:30;1.93;;;1.20;;
3601;SDS011;1815;50.950;6.920;2023-05-07T15:08:56;1.90;;;1.03;;
3601;SDS011;1815;50.950;6.920;2023-05-07T15:11:22;2.93;;;1.30;;
3601;SDS011;1815;50.950;6.920;2023-05-07T15:13:48;3.30;;;1.40;;
3601;SDS011;1815;50.950;6.920;2023-05-07T15:16:14;3.20;;;1.17;;
3601;SDS011;1815;50.950;6.920;2023-05-07T15:18:40;3.70;;;1.10;;
3601;SDS011;1815;50.950;6.920;2023-05-07T15:21:06;3.20;;;1.20;;
3601;SDS011;1815;50.950;6.920;2023-05-07T15:23:32;2.27;;;1.00;;
3601;SDS011;1815;50.950;6.920;2023-05-07T15:25:58;2.10;;;0.90;;
3601;SDS011;1815;50.950;6.920;2023-05-07T15:28:24;1.70;;;0.80;;
3601;SDS011;1815;50.950;6.920;2023-05-07T15:30:52;1.30;;;0.70;;
3601;SDS011;1815;50.950;6.920;2023-05-07T15:33:18;1.40;;;0.70;;
3601;SDS011;1815;50.950;6.920;2023-05-07T15:35:44;1.80;;;0.70;;
3601;SDS011;1815;50.950;6.920;2023-05-07T15:38:10;1.70;;;0.83;;
3601;SDS011;1815;50.950;6.920;2023-05-07T15:40:36;2.87;;;1.20;;